createdAt,value
2022-12-09T00:00:55.607Z,-7.96
2022-12-09T00:06:01.361Z,-7.45
2022-12-09T00:11:08.019Z,-7.10
2022-12-09T00:16:15.665Z,-7.09
2022-12-09T00:21:27.645Z,-7.16
2022-12-09T00:26:34.675Z,-7.41
2022-12-09T00:31:40.276Z,-7.46
2022-12-09T00:36:46.056Z,-7.51
2022-12-09T00:41:52.133Z,-7.47
2022-12-09T00:46:58.480Z,-7.73
2022-12-09T00:52:04.360Z,-7.78
2022-12-09T00:57:10.123Z,-7.93
2022-12-09T01:02:15.873Z,-8.26
2022-12-09T01:07:21.467Z,-8.30
2022-12-09T01:12:27.369Z,-8.34
2022-12-09T01:17:33.252Z,-8.50
2022-12-09T01:22:39.051Z,-8.56
2022-12-09T01:27:45.069Z,-8.56
2022-12-09T01:32:50.966Z,-8.56
2022-12-09T01:37:56.851Z,-8.60
2022-12-09T01:43:02.578Z,-8.57
2022-12-09T01:48:16.157Z,-8.45
2022-12-09T01:53:28.726Z,-8.51
2022-12-09T01:58:34.758Z,-8.33
2022-12-09T02:03:40.817Z,-8.25
2022-12-09T02:08:48.335Z,-8.24
2022-12-09T02:14:15.282Z,-8.32
2022-12-09T02:19:45.266Z,-8.35
2022-12-09T02:25:32.698Z,-8.36
2022-12-09T02:31:03.587Z,-8.43
2022-12-09T02:36:18.993Z,-8.34
2022-12-09T02:41:31.681Z,-8.30
2022-12-09T02:46:42.591Z,-8.11
2022-12-09T02:51:52.396Z,-8.08
2022-12-09T02:57:05.778Z,-7.96
2022-12-09T03:02:32.709Z,-7.95
2022-12-09T03:07:57.535Z,-7.91
2022-12-09T03:13:17.010Z,-7.76
2022-12-09T03:18:29.637Z,-7.85
2022-12-09T03:23:36.983Z,-7.80
2022-12-09T03:28:50.700Z,-7.70
2022-12-09T03:34:05.034Z,-7.55
2022-12-09T03:39:16.189Z,-7.54
2022-12-09T03:44:54.402Z,-7.63
2022-12-09T03:50:00.563Z,-7.48
2022-12-09T03:55:28.385Z,-7.54
2022-12-09T04:00:38.301Z,-7.61
2022-12-09T04:05:43.867Z,-7.72
2022-12-09T04:10:49.299Z,-7.76
2022-12-09T04:15:54.937Z,-7.71
2022-12-09T04:21:01.016Z,-7.90
2022-12-09T04:26:07.563Z,-7.69
2022-12-09T04:31:14.597Z,-7.65
2022-12-09T04:36:21.818Z,-7.66
2022-12-09T04:41:29.801Z,-7.82
2022-12-09T04:46:34.346Z,-7.80
2022-12-09T04:51:40.213Z,-7.77
2022-12-09T04:56:45.619Z,-7.61
2022-12-09T05:01:54.107Z,-7.59
2022-12-09T05:07:01.549Z,-7.68
2022-12-09T05:12:06.939Z,-7.64
2022-12-09T05:17:13.011Z,-7.65
2022-12-09T05:22:19.051Z,-7.65
2022-12-09T05:27:23.965Z,-7.71
2022-12-09T05:32:31.501Z,-7.59
2022-12-09T05:37:36.261Z,-7.53
2022-12-09T05:42:42.152Z,-7.54
2022-12-09T05:47:47.096Z,-7.62
2022-12-09T05:52:51.730Z,-7.63
2022-12-09T05:57:56.225Z,-7.54
2022-12-09T06:03:01.070Z,-7.39
2022-12-09T06:08:07.470Z,-7.21
2022-12-09T06:13:12.806Z,-6.97
2022-12-09T06:18:17.379Z,-6.94
2022-12-09T06:23:22.016Z,-6.87
2022-12-09T06:28:26.765Z,-6.97
2022-12-09T06:33:54.134Z,-6.97
2022-12-09T06:38:57.016Z,-6.81
2022-12-09T06:44:02.192Z,-6.72
2022-12-09T06:49:07.266Z,-6.76
2022-12-09T06:54:11.758Z,-6.64
2022-12-09T06:59:16.175Z,-6.76
2022-12-09T07:04:20.788Z,-6.66
2022-12-09T07:09:26.063Z,-6.41
2022-12-09T07:14:30.731Z,-6.11
2022-12-09T07:19:35.603Z,-6.13
2022-12-09T07:24:41.279Z,-6.31
2022-12-09T07:29:45.887Z,-6.18
2022-12-09T07:34:50.595Z,-6.10
2022-12-09T07:39:55.391Z,-6.01
2022-12-09T07:44:59.594Z,-6.20
2022-12-09T07:50:06.696Z,-6.23
2022-12-09T07:55:12.490Z,-5.97
2022-12-09T08:00:17.749Z,-5.88
2022-12-09T08:05:22.663Z,-5.65
2022-12-09T08:10:27.396Z,-5.69
2022-12-09T08:15:32.750Z,-5.55
2022-12-09T08:20:38.559Z,-5.55
2022-12-09T08:25:43.292Z,-5.28
2022-12-09T08:30:48.361Z,-5.11
2022-12-09T08:35:52.961Z,-4.88
2022-12-09T08:40:57.297Z,-4.98
2022-12-09T08:46:02.483Z,-4.88
2022-12-09T08:51:08.562Z,-4.66
2022-12-09T08:56:15.495Z,-4.52
2022-12-09T09:01:25.837Z,-4.31
2022-12-09T09:06:30.486Z,-4.19
2022-12-09T09:11:35.752Z,-4.17
2022-12-09T09:16:42.260Z,-3.86
2022-12-09T09:21:47.293Z,-3.88
2022-12-09T09:26:53.156Z,-4.00
2022-12-09T09:31:58.503Z,-4.00
2022-12-09T09:37:03.644Z,-3.90
2022-12-09T09:42:14.069Z,-3.93
2022-12-09T09:47:20.129Z,-4.04
2022-12-09T09:52:27.558Z,-4.02
2022-12-09T09:57:45.753Z,-3.98
2022-12-09T10:03:31.607Z,-3.98
2022-12-09T10:09:11.544Z,-3.97
2022-12-09T10:14:23.382Z,-3.98
2022-12-09T10:19:39.332Z,-3.79
2022-12-09T10:24:48.540Z,-3.82
2022-12-09T10:30:03.086Z,-3.92
2022-12-09T10:35:15.899Z,-3.81
2022-12-09T10:40:39.518Z,-3.71
2022-12-09T10:51:37.422Z,-3.76
2022-12-09T10:57:04.344Z,-3.90
2022-12-09T11:02:11.943Z,-3.88
2022-12-09T11:07:18.204Z,-3.80
2022-12-09T11:12:33.358Z,-3.73
2022-12-09T11:17:56.078Z,-3.72
2022-12-09T11:23:15.233Z,-3.73
2022-12-09T11:28:20.262Z,-3.62
2022-12-09T11:33:34.092Z,-3.78
2022-12-09T11:38:42.963Z,-3.47
2022-12-09T11:43:53.438Z,-3.36
2022-12-09T11:49:03.552Z,-3.23
2022-12-09T11:54:23.710Z,-3.14
2022-12-09T11:59:38.429Z,-3.13
2022-12-09T12:05:10.195Z,-3.06
2022-12-09T12:10:29.710Z,-3.12
2022-12-09T12:15:46.039Z,-3.16
2022-12-09T12:20:59.145Z,-3.30
2022-12-09T12:26:19.236Z,-3.34
2022-12-09T12:32:01.532Z,-3.51
2022-12-09T12:37:36.246Z,-3.63
2022-12-09T12:43:17.828Z,-3.76
2022-12-09T12:48:34.185Z,-3.88
2022-12-09T12:54:09.880Z,-4.09
2022-12-09T12:59:32.883Z,-4.13
2022-12-09T13:04:52.523Z,-4.35
2022-12-09T13:10:03.403Z,-4.52
2022-12-09T13:15:14.429Z,-4.56
2022-12-09T13:20:49.880Z,-4.65
2022-12-09T13:26:11.239Z,-4.81
2022-12-09T13:31:18.553Z,-4.92
2022-12-09T13:36:30.356Z,-4.89
2022-12-09T13:42:01.167Z,-4.88
2022-12-09T13:47:26.920Z,-4.86
2022-12-09T13:52:46.280Z,-4.95
2022-12-09T13:58:21.098Z,-4.99
2022-12-09T14:03:32.176Z,-5.04
2022-12-09T14:08:49.672Z,-5.11
2022-12-09T14:14:24.867Z,-5.16
2022-12-09T14:19:44.242Z,-5.29
2022-12-09T14:25:29.877Z,-5.28
2022-12-09T14:30:35.271Z,-5.31
2022-12-09T14:35:49.906Z,-5.33
2022-12-09T14:41:38.559Z,-5.36
2022-12-09T14:47:13.652Z,-5.47
2022-12-09T14:52:32.691Z,-5.45
2022-12-09T14:57:46.644Z,-5.45
2022-12-09T15:03:23.446Z,-5.51
2022-12-09T15:08:29.341Z,-5.49
2022-12-09T15:13:36.823Z,-5.52
2022-12-09T15:18:44.994Z,-5.52
2022-12-09T15:23:50.836Z,-5.73
2022-12-09T15:29:00.029Z,-5.65
2022-12-09T15:34:26.244Z,-5.66
2022-12-09T15:39:51.405Z,-5.68
2022-12-09T15:45:11.862Z,-5.64
2022-12-09T15:50:31.771Z,-5.71
2022-12-09T15:55:51.414Z,-5.71
2022-12-09T16:00:58.040Z,-5.69
2022-12-09T16:06:10.773Z,-5.65
2022-12-09T16:11:40.116Z,-5.66
2022-12-09T16:17:02.777Z,-5.69
2022-12-09T16:22:30.698Z,-5.66
2022-12-09T16:27:42.735Z,-5.71
2022-12-09T16:33:00.302Z,-5.71
2022-12-09T16:38:12.448Z,-5.77
2022-12-09T16:43:18.439Z,-5.83
2022-12-09T16:48:25.975Z,-5.87
2022-12-09T16:53:35.189Z,-5.90
2022-12-09T16:58:40.943Z,-5.89
2022-12-09T17:03:57.120Z,-5.89
2022-12-09T17:09:02.906Z,-5.88
2022-12-09T17:14:08.822Z,-5.82
2022-12-09T17:19:14.603Z,-5.73
2022-12-09T17:24:21.511Z,-5.75
2022-12-09T17:29:27.196Z,-5.63
2022-12-09T17:34:32.749Z,-5.55
2022-12-09T17:39:38.531Z,-5.54
2022-12-09T17:44:44.217Z,-5.44
2022-12-09T17:49:49.485Z,-5.46
2022-12-09T17:54:55.186Z,-5.38
2022-12-09T18:00:00.809Z,-5.44
2022-12-09T18:05:06.791Z,-5.34
2022-12-09T18:10:12.700Z,-5.34
2022-12-09T18:15:19.529Z,-5.33
2022-12-09T18:20:25.283Z,-5.32
2022-12-09T18:25:30.998Z,-5.30
2022-12-09T18:30:38.741Z,-5.30
2022-12-09T18:35:44.673Z,-5.64
2022-12-09T18:41:03.705Z,-5.40
2022-12-09T18:46:15.313Z,-5.50
2022-12-09T18:51:22.284Z,-5.48
2022-12-09T18:56:28.970Z,-5.56
2022-12-09T19:01:36.174Z,-5.53
2022-12-09T19:06:44.572Z,-5.65
2022-12-09T19:11:51.481Z,-5.65
2022-12-09T19:16:57.232Z,-5.73
2022-12-09T19:22:04.321Z,-5.76
2022-12-09T19:27:10.131Z,-5.82
2022-12-09T19:32:50.839Z,-5.75
2022-12-09T19:37:43.133Z,-5.79
2022-12-09T19:42:48.947Z,-5.84
2022-12-09T19:47:54.545Z,-5.99
2022-12-09T19:53:00.229Z,-6.18
2022-12-09T19:58:06.532Z,-6.22
2022-12-09T20:03:12.186Z,-6.36
2022-12-09T20:08:17.859Z,-6.42
2022-12-09T20:13:28.631Z,-6.51
2022-12-09T20:18:39.046Z,-6.52
2022-12-09T20:23:46.047Z,-6.74
2022-12-09T20:28:54.602Z,-6.86
2022-12-09T20:34:05.133Z,-6.95
2022-12-09T20:39:16.380Z,-6.91
2022-12-09T20:44:22.058Z,-6.95
2022-12-09T20:49:28.300Z,-7.02
2022-12-09T20:54:33.747Z,-7.06
2022-12-09T20:59:39.436Z,-7.15
2022-12-09T21:04:46.527Z,-7.09
2022-12-09T21:09:51.731Z,-7.02
2022-12-09T21:14:57.474Z,-6.97
2022-12-09T21:20:03.159Z,-6.81
2022-12-09T21:25:10.042Z,-6.82
2022-12-09T21:30:15.590Z,-6.76
2022-12-09T21:35:21.192Z,-6.85
2022-12-09T21:40:26.910Z,-6.86
2022-12-09T21:45:32.913Z,-6.91
2022-12-09T21:50:38.598Z,-6.86
2022-12-09T21:55:44.473Z,-6.86
2022-12-09T22:00:50.034Z,-6.94
2022-12-09T22:05:58.448Z,-6.95
2022-12-09T22:11:21.804Z,-6.93
2022-12-09T22:16:31.638Z,-6.85
2022-12-09T22:21:38.036Z,-6.84
2022-12-09T22:26:44.308Z,-6.89
2022-12-09T22:31:50.254Z,-6.94
2022-12-09T22:36:56.135Z,-7.01
2022-12-09T22:42:01.597Z,-7.02
2022-12-09T22:47:08.568Z,-7.03
2022-12-09T22:52:14.087Z,-7.06
2022-12-09T22:57:19.720Z,-7.00
2022-12-09T23:02:25.614Z,-7.11
2022-12-09T23:07:31.221Z,-7.09
2022-12-09T23:12:36.964Z,-7.07
2022-12-09T23:17:42.738Z,-7.06
2022-12-09T23:22:48.443Z,-6.93
2022-12-09T23:27:53.666Z,-6.91
2022-12-09T23:32:59.255Z,-7.04
2022-12-09T23:38:05.068Z,-7.14
2022-12-09T23:43:10.611Z,-7.22
2022-12-09T23:48:16.222Z,-7.19
2022-12-09T23:53:22.523Z,-7.19
2022-12-09T23:58:28.156Z,-7.21
